Time;durP1;ratioP1;P1;durP2;ratioP2;P2;SDS_P1;SDS_P2;PMS_P1;PMS_P2;Temp;Humidity;BMP_temperature;BMP_pressure;BME280_temperature;BME280_humidity;BME280_pressure;Samples;Min_cycle;Max_cycle;Signal;HPM_P1;HPM_P2
2021/07/15 00:00:53;;;;;;;36.90;25.03;;;17.40;99.90;;;;;;5052966;28;20176;-82
2021/07/15 00:03:20;;;;;;;39.00;24.53;;;17.40;99.90;;;;;;5052498;28;20550;-81
2021/07/15 00:05:47;;;;;;;39.03;23.93;;;17.40;99.90;;;;;;5053002;28;20169;-78
2021/07/15 00:08:17;;;;;;;40.87;25.37;;;17.30;99.90;;;;;;5052929;28;20215;-79
2021/07/15 00:10:51;;;;;;;39.43;24.23;;;17.30;99.90;;;;;;5052476;28;20169;-79
2021/07/15 00:13:17;;;;;;;43.37;26.23;;;17.30;99.90;;;;;;5052888;28;20165;-79
2021/07/15 00:15:47;;;;;;;43.80;26.10;;;17.30;99.90;;;;;;5052680;28;20169;-79
2021/07/15 00:18:15;;;;;;;42.00;27.07;;;17.30;99.90;;;;;;5052778;28;20648;-79
2021/07/15 00:20:44;;;;;;;37.63;24.17;;;17.30;99.90;;;;;;5053121;28;20176;-77
2021/07/15 00:23:10;;;;;;;36.20;24.67;;;17.20;99.90;;;;;;5056187;28;20718;-77
2021/07/15 00:25:37;;;;;;;44.90;26.80;;;17.20;99.90;;;;;;5056215;28;20245;-77
2021/07/15 00:28:04;;;;;;;40.30;25.97;;;17.20;99.90;;;;;;5062487;28;20169;-77
2021/07/15 00:30:30;;;;;;;43.47;25.37;;;17.20;99.90;;;;;;5065108;28;20175;-77
2021/07/15 00:32:55;;;;;;;47.77;26.67;;;17.30;99.90;;;;;;5064645;28;20176;-79
2021/07/15 00:35:21;;;;;;;42.90;27.33;;;17.20;99.90;;;;;;5059636;28;20482;-76
2021/07/15 00:37:47;;;;;;;45.63;29.33;;;17.20;99.90;;;;;;5058977;28;20157;-78
2021/07/15 00:40:15;;;;;;;45.50;28.33;;;17.20;99.90;;;;;;5059129;28;20200;-77
2021/07/15 00:42:42;;;;;;;45.50;26.40;;;17.20;99.90;;;;;;5058310;28;20200;-79
2021/07/15 00:45:09;;;;;;;49.37;29.33;;;17.20;99.90;;;;;;5056297;28;20165;-76
2021/07/15 00:47:35;;;;;;;43.30;27.83;;;17.20;99.90;;;;;;5056101;28;20647;-77
2021/07/15 00:50:04;;;;;;;50.93;29.97;;;17.20;99.90;;;;;;5056087;28;20161;-80
2021/07/15 00:52:30;;;;;;;50.70;29.03;;;17.20;99.90;;;;;;5056252;28;20184;-77
2021/07/15 00:54:56;;;;;;;50.10;29.13;;;17.30;99.90;;;;;;5056016;28;20188;-77
2021/07/15 00:57:22;;;;;;;51.37;30.47;;;17.20;99.90;;;;;;5056241;28;20697;-78
2021/07/15 00:59:50;;;;;;;46.90;28.47;;;17.20;99.90;;;;;;5056091;28;20169;-78
2021/07/15 01:02:16;;;;;;;48.10;28.37;;;17.20;99.90;;;;;;5054659;28;20669;-77
2021/07/15 01:04:42;;;;;;;43.90;26.30;;;17.20;99.90;;;;;;5056592;28;20363;-79
2021/07/15 01:07:08;;;;;;;46.30;28.13;;;17.20;99.90;;;;;;5055935;28;20185;-79
2021/07/15 01:09:34;;;;;;;41.27;26.90;;;17.20;99.90;;;;;;5055771;28;20626;-77
2021/07/15 01:12:28;;;;;;;45.07;26.17;;;17.20;99.90;;;;;;5056607;28;20218;-77
2021/07/15 01:15:12;;;;;;;40.83;25.70;;;17.20;99.90;;;;;;5056172;28;20173;-80
2021/07/15 01:18:15;;;;;;;41.17;26.00;;;17.20;99.90;;;;;;5055847;28;20189;-77
2021/07/15 01:20:56;;;;;;;44.03;25.13;;;17.30;99.90;;;;;;5054639;28;20180;-78
2021/07/15 01:23:30;;;;;;;44.17;25.30;;;17.20;99.90;;;;;;5055601;28;20251;-81
2021/07/15 01:26:21;;;;;;;39.47;24.77;;;17.20;99.90;;;;;;5055756;28;20164;-82
2021/07/15 01:29:03;;;;;;;47.33;24.97;;;17.30;99.90;;;;;;5056884;28;20230;-80
2021/07/15 01:31:33;;;;;;;39.27;23.97;;;17.20;99.90;;;;;;5057608;28;20544;-81
2021/07/15 01:34:01;;;;;;;39.43;23.53;;;17.30;99.90;;;;;;5056778;28;20242;-80
2021/07/15 01:36:30;;;;;;;39.20;24.60;;;17.30;99.90;;;;;;5060420;28;20177;-80
2021/07/15 01:39:05;;;;;;;43.97;25.00;;;17.30;99.90;;;;;;5067210;28;20212;-81
2021/07/15 01:41:36;;;;;;;38.67;24.13;;;17.40;99.90;;;;;;5066341;28;20207;-81
2021/07/15 01:44:11;;;;;;;47.23;26.13;;;17.30;99.90;;;;;;5066700;28;20169;-76
2021/07/15 01:46:39;;;;;;;41.70;24.63;;;17.30;99.90;;;;;;5055556;28;20172;-78
2021/07/15 01:49:07;;;;;;;47.07;23.73;;;17.40;99.90;;;;;;5055459;28;20260;-80
2021/07/15 01:51:34;;;;;;;42.80;23.07;;;17.30;99.90;;;;;;5054773;28;20172;-79
2021/07/15 01:54:03;;;;;;;37.37;24.20;;;17.30;99.90;;;;;;5054981;28;20275;-81
2021/07/15 01:56:29;;;;;;;40.03;24.73;;;17.40;99.90;;;;;;5053298;28;20525;-81
2021/07/15 01:58:57;;;;;;;41.70;22.70;;;17.40;99.90;;;;;;5054767;28;20165;-81
2021/07/15 02:01:23;;;;;;;46.80;25.23;;;17.30;99.90;;;;;;5054666;28;20256;-77
2021/07/15 02:03:54;;;;;;;38.53;23.00;;;17.30;99.90;;;;;;5054963;28;20631;-81
2021/07/15 02:06:21;;;;;;;39.90;23.90;;;17.20;99.90;;;;;;5054500;28;20149;-78
2021/07/15 02:08:48;;;;;;;45.60;25.03;;;17.20;99.90;;;;;;5054606;28;20169;-79
2021/07/15 02:11:15;;;;;;;49.60;25.43;;;17.20;99.90;;;;;;5054966;28;20193;-82
2021/07/15 02:13:44;;;;;;;44.53;25.70;;;17.20;99.90;;;;;;5055051;28;20165;-82
2021/07/15 02:16:10;;;;;;;37.50;24.63;;;17.30;99.90;;;;;;5055002;28;20613;-77
2021/07/15 02:18:39;;;;;;;46.03;27.20;;;17.20;99.90;;;;;;5054840;28;20181;-80
2021/07/15 02:21:05;;;;;;;43.60;27.07;;;17.20;99.90;;;;;;5054038;28;20164;-78
2021/07/15 02:23:32;;;;;;;48.37;25.17;;;17.20;99.90;;;;;;5054248;28;20219;-78
2021/07/15 02:25:59;;;;;;;41.13;25.57;;;17.20;99.90;;;;;;5054087;28;20196;-76
2021/07/15 02:28:26;;;;;;;42.50;22.97;;;17.30;99.90;;;;;;5058361;28;20540;-78
2021/07/15 02:31:14;;;;;;;44.90;24.03;;;17.20;99.90;;;;;;5068064;28;20165;-79
2021/07/15 02:33:47;;;;;;;34.97;19.47;;;17.20;99.90;;;;;;5067549;28;20169;-77
2021/07/15 02:36:14;;;;;;;44.10;23.67;;;17.20;99.90;;;;;;5061307;28;20656;-76
2021/07/15 02:38:41;;;;;;;40.60;24.00;;;17.20;99.90;;;;;;5055339;28;20241;-80
2021/07/15 02:41:06;;;;;;;37.70;21.53;;;17.20;99.90;;;;;;5054909;28;20173;-79
2021/07/15 02:43:32;;;;;;;39.43;22.73;;;17.20;99.90;;;;;;5063292;28;20275;-77
2021/07/15 02:45:58;;;;;;;38.73;22.07;;;17.20;99.90;;;;;;5058910;28;20685;-79
2021/07/15 02:48:24;;;;;;;46.90;25.63;;;17.10;99.90;;;;;;5053728;28;20619;-76
2021/07/15 02:50:50;;;;;;;44.37;24.17;;;17.20;99.90;;;;;;5053468;28;20169;-80
2021/07/15 02:53:18;;;;;;;47.70;24.83;;;17.10;99.90;;;;;;5053747;28;20255;-77
2021/07/15 02:55:52;;;;;;;45.23;23.50;;;17.20;99.90;;;;;;5053754;28;20240;-79
2021/07/15 02:58:27;;;;;;;48.63;25.83;;;17.00;99.90;;;;;;5053373;28;20164;-80
2021/07/15 03:00:57;;;;;;;47.97;25.33;;;17.10;99.90;;;;;;5053509;28;20172;-77
2021/07/15 03:03:42;;;;;;;42.43;25.00;;;17.00;99.90;;;;;;5053598;28;20601;-77
2021/07/15 03:06:22;;;;;;;50.10;25.83;;;17.20;99.90;;;;;;5064758;28;20181;-75
2021/07/15 03:09:00;;;;;;;48.37;27.03;;;17.10;99.90;;;;;;5068481;28;20165;-78
2021/07/15 03:11:36;;;;;;;49.83;26.33;;;17.10;99.90;;;;;;5054457;28;20165;-80
2021/07/15 03:14:03;;;;;;;48.50;26.67;;;17.10;99.90;;;;;;5053139;28;20206;-77
2021/07/15 03:16:31;;;;;;;46.43;27.57;;;17.10;99.90;;;;;;5053327;28;20160;-78
2021/07/15 03:18:57;;;;;;;52.07;27.20;;;17.00;99.90;;;;;;5052958;28;20601;-79
2021/07/15 03:21:24;;;;;;;43.33;26.43;;;17.00;99.90;;;;;;5053501;28;20515;-79
2021/07/15 03:23:54;;;;;;;52.50;26.40;;;17.10;99.90;;;;;;5053161;28;20645;-78
2021/07/15 03:26:21;;;;;;;53.17;27.53;;;17.00;99.90;;;;;;5053065;28;20171;-77
2021/07/15 03:28:48;;;;;;;42.03;26.53;;;17.00;99.90;;;;;;5053109;28;20172;-77
2021/07/15 03:31:16;;;;;;;51.07;27.53;;;17.10;99.90;;;;;;5053326;28;20168;-78
2021/07/15 03:33:42;;;;;;;42.73;25.77;;;17.10;99.90;;;;;;5051708;28;20175;-78
2021/07/15 03:36:09;;;;;;;48.20;26.03;;;17.00;99.90;;;;;;5053265;28;20184;-81
2021/07/15 03:38:40;;;;;;;50.47;27.20;;;17.00;99.90;;;;;;5053038;28;20172;-81
2021/07/15 03:41:06;;;;;;;43.73;25.20;;;17.10;99.90;;;;;;5053232;28;20680;-80
2021/07/15 03:43:36;;;;;;;44.13;24.53;;;17.00;99.90;;;;;;5053458;28;20278;-78
2021/07/15 03:46:02;;;;;;;43.90;25.93;;;17.00;99.90;;;;;;5052832;28;20169;-78
2021/07/15 03:48:29;;;;;;;41.77;24.50;;;17.00;99.90;;;;;;5053068;28;20194;-78
2021/07/15 03:51:00;;;;;;;47.30;27.20;;;17.00;99.90;;;;;;5053310;28;20637;-78
2021/07/15 03:53:27;;;;;;;37.93;25.57;;;16.90;99.90;;;;;;5053376;28;20314;-76
2021/07/15 03:55:58;;;;;;;41.13;25.73;;;17.00;99.90;;;;;;5055737;28;20181;-76
2021/07/15 03:58:26;;;;;;;49.53;27.67;;;17.00;99.90;;;;;;5057079;28;20177;-76
2021/07/15 04:00:58;;;;;;;53.53;28.63;;;16.90;99.90;;;;;;5057381;28;20183;-76
2021/07/15 04:03:24;;;;;;;49.53;26.47;;;17.00;99.90;;;;;;5057013;28;20220;-81
2021/07/15 04:05:52;;;;;;;50.80;30.10;;;17.00;99.90;;;;;;5056149;28;20203;-78
2021/07/15 04:08:20;;;;;;;44.60;28.70;;;17.00;99.90;;;;;;5057628;28;20175;-80
2021/07/15 04:10:49;;;;;;;46.97;28.40;;;17.00;99.90;;;;;;5058450;28;20176;-78
2021/07/15 04:13:15;;;;;;;52.33;29.70;;;17.00;99.90;;;;;;5059581;28;20184;-79
2021/07/15 04:16:15;;;;;;;45.43;29.47;;;17.00;99.90;;;;;;5057097;28;20688;-78
2021/07/15 04:18:44;;;;;;;46.10;29.70;;;16.90;99.90;;;;;;5057087;28;20200;-77
2021/07/15 04:21:12;;;;;;;55.10;30.57;;;17.00;99.90;;;;;;5056489;28;20165;-78
2021/07/15 04:23:42;;;;;;;47.57;27.60;;;16.90;99.90;;;;;;5056456;28;20571;-77
2021/07/15 04:26:08;;;;;;;45.33;28.33;;;16.90;99.90;;;;;;5056377;28;20173;-76
2021/07/15 04:28:35;;;;;;;49.17;27.77;;;16.90;99.90;;;;;;5056598;28;20169;-81
2021/07/15 04:31:23;;;;;;;49.83;28.97;;;16.90;99.90;;;;;;5056527;28;20230;-79
2021/07/15 04:33:48;;;;;;;43.50;26.17;;;17.00;99.90;;;;;;5057142;28;20164;-79
2021/07/15 04:36:14;;;;;;;42.77;26.43;;;16.90;99.90;;;;;;5056620;28;20644;-79
2021/07/15 04:38:42;;;;;;;45.83;26.97;;;16.90;99.90;;;;;;5056661;28;20173;-78
2021/07/15 04:41:10;;;;;;;47.80;28.07;;;16.90;99.90;;;;;;5056530;28;20244;-78
2021/07/15 04:43:38;;;;;;;46.13;26.87;;;17.00;99.90;;;;;;5056497;28;20208;-79
2021/07/15 04:46:05;;;;;;;41.07;26.33;;;16.90;99.90;;;;;;5057229;28;20164;-79
2021/07/15 04:48:39;;;;;;;42.80;27.37;;;16.90;99.90;;;;;;5069707;28;20157;-78
2021/07/15 04:51:14;;;;;;;48.27;28.67;;;16.90;99.90;;;;;;5077618;28;20168;-76
2021/07/15 04:53:39;;;;;;;52.90;28.50;;;17.00;99.90;;;;;;5056617;28;20176;-79
2021/07/15 04:56:06;;;;;;;49.73;27.47;;;17.00;99.90;;;;;;5056088;28;20189;-81
2021/07/15 04:58:32;;;;;;;46.80;28.30;;;17.00;99.90;;;;;;5057509;28;20177;-81
2021/07/15 05:00:59;;;;;;;46.77;26.77;;;17.00;99.90;;;;;;5058161;28;20218;-78
2021/07/15 05:03:30;;;;;;;40.70;27.33;;;17.00;99.90;;;;;;5066376;28;20239;-77
2021/07/15 05:05:57;;;;;;;44.80;27.80;;;16.90;99.90;;;;;;5068178;28;20175;-77
2021/07/15 05:08:23;;;;;;;43.87;25.10;;;16.90;99.90;;;;;;5068806;28;20203;-76
2021/07/15 05:10:49;;;;;;;44.47;27.07;;;16.90;99.90;;;;;;5059257;28;20258;-78
2021/07/15 05:13:20;;;;;;;45.33;28.07;;;16.90;99.90;;;;;;5056586;28;20182;-81
2021/07/15 05:15:53;;;;;;;40.70;26.37;;;16.90;99.90;;;;;;5055535;28;20165;-80
2021/07/15 05:18:20;;;;;;;45.60;26.53;;;16.90;99.90;;;;;;5055537;28;20725;-78
2021/07/15 05:20:47;;;;;;;41.87;28.10;;;16.90;99.90;;;;;;5055438;28;20640;-81
2021/07/15 05:23:13;;;;;;;40.20;25.07;;;17.00;99.90;;;;;;5055221;28;20211;-78
2021/07/15 05:25:40;;;;;;;51.50;26.53;;;17.00;99.90;;;;;;5055529;28;20240;-77
2021/07/15 05:28:06;;;;;;;42.93;25.63;;;17.00;99.90;;;;;;5053820;28;20180;-81
2021/07/15 05:30:32;;;;;;;42.47;25.40;;;16.90;99.90;;;;;;5055450;28;20168;-78
2021/07/15 05:32:58;;;;;;;46.77;27.03;;;16.90;99.90;;;;;;5053859;28;20180;-81
2021/07/15 05:35:24;;;;;;;43.47;25.57;;;16.90;99.90;;;;;;5055339;28;20540;-76
2021/07/15 05:37:50;;;;;;;33.73;23.93;;;17.00;99.90;;;;;;5055277;28;20193;-77
2021/07/15 05:40:16;;;;;;;43.57;27.00;;;17.00;99.90;;;;;;5055402;28;20534;-78
2021/07/15 05:42:42;;;;;;;37.60;23.07;;;17.10;99.90;;;;;;5055328;28;20197;-78
2021/07/15 05:45:08;;;;;;;40.80;25.23;;;17.00;99.90;;;;;;5056855;28;20176;-77
2021/07/15 05:47:34;;;;;;;37.33;25.57;;;17.00;99.90;;;;;;5058871;28;20203;-81
2021/07/15 05:49:59;;;;;;;42.10;24.87;;;17.10;99.90;;;;;;5055374;28;20192;-82
2021/07/15 05:52:26;;;;;;;38.03;23.47;;;17.00;99.90;;;;;;5055146;28;20531;-79
2021/07/15 05:54:56;;;;;;;38.07;24.87;;;17.00;99.90;;;;;;5054951;28;20548;-78
2021/07/15 05:57:23;;;;;;;36.60;24.13;;;17.00;99.90;;;;;;5054139;28;20563;-78
2021/07/15 05:59:48;;;;;;;34.43;23.77;;;17.00;99.90;;;;;;5055464;28;20169;-79
2021/07/15 06:02:15;;;;;;;34.33;22.70;;;17.20;99.90;;;;;;5055892;28;20297;-76
2021/07/15 06:04:41;;;;;;;31.87;23.43;;;17.00;99.90;;;;;;5058610;28;20184;-79
2021/07/15 06:07:07;;;;;;;34.40;23.23;;;17.10;99.90;;;;;;5068037;28;20183;-76
2021/07/15 06:09:32;;;;;;;35.07;20.80;;;17.10;99.90;;;;;;5065306;28;20620;-80
2021/07/15 06:11:58;;;;;;;30.27;21.40;;;17.10;99.90;;;;;;5056136;28;20184;-81
2021/07/15 06:14:27;;;;;;;35.70;21.40;;;17.10;99.90;;;;;;5055435;28;20169;-78
2021/07/15 06:16:52;;;;;;;35.33;22.53;;;17.00;99.90;;;;;;5054592;28;20211;-78
2021/07/15 06:19:18;;;;;;;34.30;22.27;;;17.10;99.90;;;;;;5053680;28;20161;-79
2021/07/15 06:21:44;;;;;;;32.67;19.83;;;17.10;99.90;;;;;;5054491;28;20188;-76
2021/07/15 06:24:10;;;;;;;32.10;20.47;;;17.10;99.90;;;;;;5053270;28;20197;-77
2021/07/15 06:26:35;;;;;;;23.63;17.20;;;17.00;99.90;;;;;;5054232;28;20566;-78
2021/07/15 06:29:01;;;;;;;30.10;19.37;;;17.00;99.90;;;;;;5064045;28;20183;-76
2021/07/15 06:31:27;;;;;;;29.87;19.17;;;17.00;99.90;;;;;;5066818;28;21039;-78
2021/07/15 06:33:52;;;;;;;35.70;19.10;;;17.10;99.90;;;;;;5054075;28;20681;-78
2021/07/15 06:36:18;;;;;;;30.37;19.20;;;17.20;99.90;;;;;;5054043;28;20169;-79
2021/07/15 06:38:45;;;;;;;29.63;20.37;;;17.10;99.90;;;;;;5054014;28;20176;-78
2021/07/15 06:41:24;;;;;;;36.43;19.40;;;17.20;99.90;;;;;;5090697;28;20535;-79
2021/07/15 06:43:50;;;;;;;32.67;19.90;;;17.20;99.90;;;;;;5091016;28;20255;-78
2021/07/15 06:46:16;;;;;;;28.83;19.77;;;17.10;99.90;;;;;;5090682;28;20270;-79
2021/07/15 06:48:42;;;;;;;30.67;20.07;;;17.30;99.90;;;;;;5091078;28;20199;-79
2021/07/15 06:51:08;;;;;;;27.47;18.47;;;17.20;99.90;;;;;;5091024;28;20655;-81
2021/07/15 06:53:34;;;;;;;32.00;19.97;;;17.20;99.90;;;;;;5090844;28;20178;-80
2021/07/15 06:56:00;;;;;;;26.20;18.43;;;17.20;99.90;;;;;;5090734;28;20163;-78
2021/07/15 06:58:27;;;;;;;35.40;21.23;;;17.30;99.90;;;;;;5089152;28;20199;-76
2021/07/15 07:00:57;;;;;;;33.67;21.47;;;17.30;99.90;;;;;;5090794;28;20234;-78
2021/07/15 07:03:23;;;;;;;38.40;22.23;;;17.20;99.90;;;;;;5090679;28;20172;-77
2021/07/15 07:05:53;;;;;;;32.07;21.73;;;17.20;99.90;;;;;;5090753;28;20220;-78
2021/07/15 07:08:19;;;;;;;33.40;22.63;;;17.20;99.90;;;;;;5090651;28;20175;-77
2021/07/15 07:10:45;;;;;;;37.20;22.67;;;17.20;99.90;;;;;;5092122;28;20176;-79
2021/07/15 07:13:11;;;;;;;40.33;24.50;;;17.20;99.90;;;;;;5092064;28;20178;-77
2021/07/15 07:15:37;;;;;;;44.87;25.97;;;17.20;99.90;;;;;;5091482;28;20818;-78
2021/07/15 07:18:03;;;;;;;39.43;25.73;;;17.20;99.90;;;;;;5091624;28;20273;-80
2021/07/15 07:20:29;;;;;;;38.33;24.60;;;17.20;99.90;;;;;;5090506;28;20217;-76
2021/07/15 07:22:55;;;;;;;39.40;24.77;;;17.20;99.90;;;;;;5091197;28;20259;-78
2021/07/15 07:25:21;;;;;;;43.07;24.40;;;17.20;99.90;;;;;;5091002;28;20722;-77
2021/07/15 07:27:49;;;;;;;41.90;24.03;;;17.30;99.90;;;;;;5090489;28;20203;-78
2021/07/15 07:30:16;;;;;;;43.20;24.07;;;17.30;99.90;;;;;;5090061;28;20176;-79
2021/07/15 07:32:44;;;;;;;33.67;22.20;;;17.30;99.90;;;;;;5090390;28;20237;-80
2021/07/15 07:35:11;;;;;;;37.20;21.80;;;17.30;99.90;;;;;;5090429;28;20171;-78
2021/07/15 07:37:37;;;;;;;34.40;21.73;;;17.30;99.90;;;;;;5098124;28;20172;-78
2021/07/15 07:40:05;;;;;;;35.97;21.53;;;17.30;99.90;;;;;;5095268;28;20280;-76
2021/07/15 07:42:32;;;;;;;38.60;22.10;;;17.30;99.90;;;;;;5097299;28;20192;-77
2021/07/15 07:45:06;;;;;;;31.60;19.07;;;17.30;99.90;;;;;;5095795;28;20652;-80
2021/07/15 07:47:32;;;;;;;30.07;19.57;;;17.30;99.90;;;;;;5090039;28;20152;-81
2021/07/15 07:49:58;;;;;;;42.00;20.60;;;17.30;99.90;;;;;;5089613;28;20708;-77
2021/07/15 07:52:24;;;;;;;32.57;20.77;;;17.40;99.90;;;;;;5076653;28;20172;-78
2021/07/15 07:54:49;;;;;;;27.93;18.77;;;17.30;99.90;;;;;;5076871;28;20178;-77
2021/07/15 07:57:15;;;;;;;32.23;18.57;;;17.30;99.90;;;;;;5076373;28;20229;-79
2021/07/15 07:59:41;;;;;;;28.20;19.00;;;17.30;99.90;;;;;;5076862;28;20227;-77
2021/07/15 08:02:07;;;;;;;29.43;19.23;;;17.30;99.90;;;;;;5077586;28;20182;-81
2021/07/15 08:04:33;;;;;;;28.37;18.90;;;17.40;99.90;;;;;;5075969;28;20718;-80
2021/07/15 08:06:59;;;;;;;25.60;17.43;;;17.40;99.90;;;;;;5075821;28;20172;-78
2021/07/15 08:09:25;;;;;;;28.57;17.90;;;17.40;99.90;;;;;;5075028;28;20675;-81
2021/07/15 08:11:54;;;;;;;28.83;16.03;;;17.40;99.90;;;;;;5075540;28;20617;-78
2021/07/15 08:14:21;;;;;;;30.23;17.27;;;17.40;99.90;;;;;;5076067;28;20221;-77
2021/07/15 08:16:47;;;;;;;28.50;17.33;;;17.40;99.90;;;;;;5074868;28;20571;-77
2021/07/15 08:19:13;;;;;;;32.77;17.87;;;17.40;99.90;;;;;;5075877;28;20192;-81
2021/07/15 08:21:39;;;;;;;27.33;15.67;;;17.50;99.90;;;;;;5075866;28;20164;-80
2021/07/15 08:24:06;;;;;;;27.40;14.80;;;17.40;99.90;;;;;;5074436;28;20245;-77
2021/07/15 08:26:31;;;;;;;26.03;15.60;;;17.40;99.90;;;;;;5075469;28;20652;-79
2021/07/15 08:28:57;;;;;;;26.23;16.27;;;17.40;99.90;;;;;;5075704;28;20628;-76
2021/07/15 08:31:26;;;;;;;28.00;15.80;;;17.40;99.90;;;;;;5075063;28;20625;-80
2021/07/15 08:33:52;;;;;;;26.50;15.27;;;17.40;99.90;;;;;;5075332;28;20172;-81
2021/07/15 08:36:19;;;;;;;24.50;14.53;;;17.50;99.90;;;;;;5075520;28;20203;-77
2021/07/15 08:38:45;;;;;;;24.63;15.20;;;17.40;99.90;;;;;;5076471;28;20168;-79
2021/07/15 08:41:11;;;;;;;27.13;14.63;;;17.50;99.90;;;;;;5077800;28;20275;-77
2021/07/15 08:43:38;;;;;;;28.17;16.53;;;17.50;99.90;;;;;;5080727;28;20190;-81
2021/07/15 08:46:06;;;;;;;24.47;14.93;;;17.50;99.90;;;;;;5075921;28;20172;-77
2021/07/15 08:48:35;;;;;;;23.20;14.70;;;17.40;99.90;;;;;;5075262;28;20164;-77
2021/07/15 08:51:02;;;;;;;25.10;15.67;;;17.40;99.90;;;;;;5074958;28;20265;-76
2021/07/15 08:53:31;;;;;;;27.67;15.80;;;17.40;99.90;;;;;;5075938;28;20169;-80
2021/07/15 08:58:44;;;;;;;22.60;14.97;;;17.30;99.90;;;;;;5074776;28;20207;-78
2021/07/15 09:01:11;;;;;;;24.03;15.57;;;17.30;99.90;;;;;;5074799;28;20298;-78
2021/07/15 09:03:37;;;;;;;23.83;16.37;;;17.30;99.90;;;;;;5074147;28;20173;-79
2021/07/15 09:06:03;;;;;;;23.40;15.67;;;17.30;99.90;;;;;;5075419;28;20251;-78
2021/07/15 09:08:32;;;;;;;24.37;16.07;;;17.30;99.90;;;;;;5074774;28;20168;-81
2021/07/15 09:11:02;;;;;;;29.67;18.53;;;17.20;99.90;;;;;;5074029;28;20225;-79
2021/07/15 09:13:29;;;;;;;25.10;18.37;;;17.20;99.90;;;;;;5073089;28;20621;-80
2021/07/15 09:15:54;;;;;;;24.90;16.63;;;17.30;99.90;;;;;;5075425;28;20172;-77
2021/07/15 09:18:20;;;;;;;22.33;17.70;;;17.30;99.90;;;;;;5075980;28;20259;-78
2021/07/15 09:20:46;;;;;;;24.73;16.87;;;17.20;99.90;;;;;;5076530;28;20258;-81
2021/07/15 09:23:15;;;;;;;24.30;17.93;;;17.30;99.90;;;;;;5078427;28;20183;-77
2021/07/15 09:25:40;;;;;;;24.83;17.77;;;17.20;99.90;;;;;;5092603;28;20168;-77
2021/07/15 09:28:13;;;;;;;24.10;17.27;;;17.20;99.90;;;;;;5090259;28;20176;-78
2021/07/15 09:30:41;;;;;;;25.20;18.40;;;17.30;99.90;;;;;;5076651;28;20647;-78
2021/07/15 09:33:36;;;;;;;28.83;18.17;;;17.30;99.90;;;;;;5075874;28;20179;-80
2021/07/15 09:36:12;;;;;;;24.93;17.40;;;17.30;99.90;;;;;;5073627;28;20597;-78
2021/07/15 09:38:41;;;;;;;27.57;18.20;;;17.30;99.90;;;;;;5073951;28;20167;-79
2021/07/15 09:41:07;;;;;;;27.23;17.20;;;17.30;99.90;;;;;;5077163;28;20714;-78
2021/07/15 09:43:37;;;;;;;29.10;18.63;;;17.30;99.90;;;;;;5079547;28;20160;-81
2021/07/15 09:46:13;;;;;;;27.00;18.40;;;17.40;99.90;;;;;;5073753;28;20164;-78
2021/07/15 09:48:48;;;;;;;25.63;18.57;;;17.40;99.90;;;;;;5073440;28;20209;-79
2021/07/15 09:51:15;;;;;;;26.30;19.00;;;17.40;99.90;;;;;;5073729;28;20235;-82
2021/07/15 09:53:42;;;;;;;21.80;17.40;;;17.40;99.90;;;;;;5073358;28;20230;-79
2021/07/15 09:56:08;;;;;;;26.57;18.20;;;17.40;99.90;;;;;;5073551;28;20172;-79
2021/07/15 09:58:36;;;;;;;26.07;18.70;;;17.40;99.90;;;;;;5073238;28;20251;-78
2021/07/15 10:01:10;;;;;;;27.23;18.93;;;17.50;99.90;;;;;;5074244;28;20188;-78
2021/07/15 10:03:47;;;;;;;26.73;19.83;;;17.40;99.90;;;;;;5077009;28;20156;-82
2021/07/15 10:06:15;;;;;;;26.30;18.63;;;17.40;99.90;;;;;;5083070;28;20171;-78
2021/07/15 10:08:43;;;;;;;26.37;20.60;;;17.40;99.90;;;;;;5078443;28;20171;-77
2021/07/15 10:11:28;;;;;;;26.53;20.47;;;17.40;99.90;;;;;;5085663;28;20190;-78
2021/07/15 10:14:10;;;;;;;33.50;22.97;;;17.30;99.90;;;;;;5082196;28;20201;-81
2021/07/15 10:16:41;;;;;;;27.50;20.67;;;17.30;99.90;;;;;;5076499;28;20171;-79
2021/07/15 10:19:25;;;;;;;25.30;21.20;;;17.30;99.90;;;;;;5082952;28;20156;-77
2021/07/15 10:22:02;;;;;;;29.90;21.50;;;17.30;99.90;;;;;;5075555;28;20758;-79
2021/07/15 10:24:28;;;;;;;29.13;21.77;;;17.40;99.90;;;;;;5074221;28;20334;-78
2021/07/15 10:26:57;;;;;;;29.53;23.00;;;17.30;99.90;;;;;;5073143;28;20171;-81
2021/07/15 10:29:25;;;;;;;30.77;22.40;;;17.30;99.90;;;;;;5073673;28;20282;-80
2021/07/15 10:31:52;;;;;;;29.63;21.73;;;17.30;99.90;;;;;;5074684;28;20259;-78
2021/07/15 10:34:19;;;;;;;28.07;22.63;;;17.30;99.90;;;;;;5072924;28;20243;-79
2021/07/15 10:36:45;;;;;;;29.63;21.97;;;17.20;99.90;;;;;;5073113;28;20257;-80
2021/07/15 10:39:14;;;;;;;30.20;22.87;;;17.20;99.90;;;;;;5072775;28;20181;-77
2021/07/15 10:41:53;;;;;;;28.67;22.60;;;17.30;99.90;;;;;;5073152;28;20442;-77
2021/07/15 10:44:21;;;;;;;31.07;22.63;;;17.30;99.90;;;;;;5071760;28;20183;-78
2021/07/15 10:46:47;;;;;;;31.53;21.43;;;17.30;99.90;;;;;;5072691;28;20160;-79
2021/07/15 10:49:14;;;;;;;29.50;22.50;;;17.30;99.90;;;;;;5072663;28;20165;-78
2021/07/15 10:51:43;;;;;;;32.17;24.00;;;17.20;99.90;;;;;;5073238;28;20192;-78
2021/07/15 10:54:10;;;;;;;33.40;24.57;;;17.20;99.90;;;;;;5072759;28;20537;-77
2021/07/15 10:56:36;;;;;;;33.57;24.17;;;17.20;99.90;;;;;;5072873;28;20196;-78
2021/07/15 10:59:04;;;;;;;31.57;24.43;;;17.10;99.90;;;;;;5072728;28;20164;-78
2021/07/15 11:01:36;;;;;;;28.07;23.03;;;17.10;99.90;;;;;;5073983;28;20210;-82
2021/07/15 11:04:18;;;;;;;26.63;23.07;;;17.20;99.90;;;;;;5072988;28;20187;-78
2021/07/15 11:06:52;;;;;;;29.40;24.60;;;17.20;99.90;;;;;;5073480;28;20188;-79
2021/07/15 11:09:28;;;;;;;29.70;23.90;;;17.20;99.90;;;;;;5072828;28;20223;-77
2021/07/15 11:11:55;;;;;;;35.17;25.27;;;17.20;99.90;;;;;;5071585;28;20530;-78
2021/07/15 11:14:43;;;;;;;30.17;23.90;;;17.20;99.90;;;;;;5071399;28;20672;-78
2021/07/15 11:17:21;;;;;;;31.60;25.13;;;17.20;99.90;;;;;;5082646;28;20175;-76
2021/07/15 11:19:57;;;;;;;29.17;23.33;;;17.20;99.90;;;;;;5083697;28;20196;-78
2021/07/15 11:22:43;;;;;;;32.83;24.53;;;17.20;99.90;;;;;;5075870;28;20192;-77
2021/07/15 11:25:14;;;;;;;32.17;23.37;;;17.10;99.90;;;;;;5073199;28;20172;-78
2021/07/15 11:27:47;;;;;;;26.90;23.57;;;17.10;99.90;;;;;;5075525;28;20164;-79
2021/07/15 11:30:27;;;;;;;27.40;24.10;;;17.10;99.90;;;;;;5079909;28;20179;-76
2021/07/15 11:36:07;;;;;;;31.97;23.23;;;17.20;99.90;;;;;;5081432;28;20239;-78
2021/07/15 11:38:59;;;;;;;32.10;24.93;;;17.20;99.90;;;;;;5085772;28;20287;-77
2021/07/15 11:41:45;;;;;;;33.23;24.80;;;17.20;99.90;;;;;;5084389;28;20220;-79
2021/07/15 11:44:15;;;;;;;30.77;25.37;;;17.20;99.90;;;;;;5079680;28;20679;-79
2021/07/15 11:46:42;;;;;;;29.53;25.93;;;17.30;99.90;;;;;;5080143;28;20168;-80
2021/07/15 11:49:23;;;;;;;35.23;27.23;;;17.30;99.90;;;;;;5077545;28;20176;-80
2021/07/15 11:52:01;;;;;;;32.93;26.33;;;17.20;99.90;;;;;;5083882;28;20168;-79
2021/07/15 11:54:36;;;;;;;34.20;26.00;;;17.40;99.90;;;;;;5082759;28;20237;-77
2021/07/15 11:57:15;;;;;;;35.57;24.60;;;17.30;99.90;;;;;;5079374;28;20322;-80
2021/07/15 11:59:51;;;;;;;32.60;24.63;;;17.40;99.90;;;;;;5079158;28;20656;-79
2021/07/15 12:02:26;;;;;;;31.73;24.47;;;17.40;99.90;;;;;;5076258;28;20175;-80
2021/07/15 12:05:18;;;;;;;33.07;25.03;;;17.40;99.90;;;;;;5078182;28;20156;-78
2021/07/15 12:07:45;;;;;;;36.93;25.47;;;17.40;99.90;;;;;;5075730;28;20220;-78
2021/07/15 12:10:19;;;;;;;29.40;22.90;;;17.40;99.90;;;;;;5074046;28;20189;-78
2021/07/15 12:12:46;;;;;;;30.23;22.23;;;17.40;99.90;;;;;;5075488;28;20168;-79
2021/07/15 12:15:18;;;;;;;28.17;21.73;;;17.40;99.90;;;;;;5075976;28;20173;-79
2021/07/15 12:17:44;;;;;;;29.33;22.80;;;17.40;99.90;;;;;;5078081;28;20168;-78
2021/07/15 12:20:11;;;;;;;24.87;20.63;;;17.40;99.90;;;;;;5077782;28;20204;-77
2021/07/15 12:22:49;;;;;;;26.70;22.47;;;17.30;99.90;;;;;;5075399;28;20259;-78
2021/07/15 12:25:21;;;;;;;26.47;21.60;;;17.30;99.90;;;;;;5075480;28;20167;-78
2021/07/15 12:27:50;;;;;;;28.80;23.50;;;17.40;99.90;;;;;;5075570;28;20172;-78
2021/07/15 12:30:16;;;;;;;29.90;24.07;;;17.40;99.90;;;;;;5075632;28;20171;-78
2021/07/15 12:32:53;;;;;;;30.30;24.37;;;17.40;99.90;;;;;;5076344;28;20536;-78
2021/07/15 12:35:19;;;;;;;28.77;24.13;;;17.50;99.90;;;;;;5076245;28;20178;-77
2021/07/15 12:37:45;;;;;;;33.13;25.00;;;17.40;99.90;;;;;;5087196;28;20187;-79
2021/07/15 12:40:11;;;;;;;30.80;23.47;;;17.40;99.90;;;;;;5098094;28;20235;-78
2021/07/15 12:42:37;;;;;;;28.47;23.80;;;17.40;99.90;;;;;;5082936;28;20238;-78
2021/07/15 12:45:20;;;;;;;28.10;22.63;;;17.40;99.90;;;;;;5077947;28;20567;-79